sensor_id;sensor_type;location;lat;lon;timestamp;temperature;humidity
51273;DHT22;37345;59.828;30.328;2022-11-20T00:01:20;-4.80;99.90
51273;DHT22;37345;59.828;30.328;2022-11-20T00:03:46;-4.80;99.90
51273;DHT22;37345;59.828;30.328;2022-11-20T00:06:14;-4.00;99.90
51273;DHT22;37345;59.828;30.328;2022-11-20T00:08:41;-4.70;99.90
51273;DHT22;37345;59.828;30.328;2022-11-20T00:11:10;-4.80;99.90
51273;DHT22;37345;59.828;30.328;2022-11-20T00:13:36;-4.70;99.90
51273;DHT22;37345;59.828;30.328;2022-11-20T00:16:04;-5.20;99.90
51273;DHT22;37345;59.828;30.328;2022-11-20T00:18:32;-4.70;99.90
51273;DHT22;37345;59.828;30.328;2022-11-20T00:21:04;-4.70;99.90
51273;DHT22;37345;59.828;30.328;2022-11-20T00:23:30;-4.60;99.90
51273;DHT22;37345;59.828;30.328;2022-11-20T00:26:00;-4.60;99.90
51273;DHT22;37345;59.828;30.328;2022-11-20T00:28:26;-4.70;99.90
51273;DHT22;37345;59.828;30.328;2022-11-20T00:31:21;-4.70;99.90
51273;DHT22;37345;59.828;30.328;2022-11-20T00:33:47;-4.70;99.90
51273;DHT22;37345;59.828;30.328;2022-11-20T00:36:18;-4.60;99.90
51273;DHT22;37345;59.828;30.328;2022-11-20T00:38:52;-4.60;99.90
51273;DHT22;37345;59.828;30.328;2022-11-20T00:41:18;-4.60;99.90
51273;DHT22;37345;59.828;30.328;2022-11-20T00:43:44;-4.60;99.90
51273;DHT22;37345;59.828;30.328;2022-11-20T00:46:14;-4.60;99.90
51273;DHT22;37345;59.828;30.328;2022-11-20T00:48:40;-4.50;99.90
51273;DHT22;37345;59.828;30.328;2022-11-20T00:51:06;-4.40;99.90
51273;DHT22;37345;59.828;30.328;2022-11-20T00:53:32;-4.80;99.90
51273;DHT22;37345;59.828;30.328;2022-11-20T00:56:01;-4.60;99.90
51273;DHT22;37345;59.828;30.328;2022-11-20T00:58:32;-4.30;99.90
51273;DHT22;37345;59.828;30.328;2022-11-20T01:01:04;-4.00;99.90
51273;DHT22;37345;59.828;30.328;2022-11-20T01:03:32;-4.50;99.90
51273;DHT22;37345;59.828;30.328;2022-11-20T01:06:03;-2.90;99.90
51273;DHT22;37345;59.828;30.328;2022-11-20T01:08:30;-4.50;99.90
51273;DHT22;37345;59.828;30.328;2022-11-20T01:11:05;-4.40;99.90
51273;DHT22;37345;59.828;30.328;2022-11-20T01:13:31;-4.50;99.90
51273;DHT22;37345;59.828;30.328;2022-11-20T01:16:06;-4.50;99.90
51273;DHT22;37345;59.828;30.328;2022-11-20T01:18:33;-4.50;99.90
51273;DHT22;37345;59.828;30.328;2022-11-20T01:21:14;-4.60;99.90
51273;DHT22;37345;59.828;30.328;2022-11-20T01:23:41;-3.70;99.90
51273;DHT22;37345;59.828;30.328;2022-11-20T01:26:10;-4.50;99.90
51273;DHT22;37345;59.828;30.328;2022-11-20T01:28:37;-4.50;99.90
51273;DHT22;37345;59.828;30.328;2022-11-20T01:31:12;-4.50;99.90
51273;DHT22;37345;59.828;30.328;2022-11-20T01:33:39;-4.50;99.90
51273;DHT22;37345;59.828;30.328;2022-11-20T01:36:07;-4.50;99.90
51273;DHT22;37345;59.828;30.328;2022-11-20T01:38:36;-4.50;99.90
51273;DHT22;37345;59.828;30.328;2022-11-20T01:41:12;-4.40;99.90
51273;DHT22;37345;59.828;30.328;2022-11-20T01:44:04;-4.40;99.90
51273;DHT22;37345;59.828;30.328;2022-11-20T01:46:32;-4.40;99.90
51273;DHT22;37345;59.828;30.328;2022-11-20T01:51:45;-3.80;99.90
51273;DHT22;37345;59.828;30.328;2022-11-20T01:54:23;-4.30;99.90
51273;DHT22;37345;59.828;30.328;2022-11-20T01:56:54;-4.00;99.90
51273;DHT22;37345;59.828;30.328;2022-11-20T01:59:23;-4.50;99.90
51273;DHT22;37345;59.828;30.328;2022-11-20T02:01:49;-4.50;99.90
51273;DHT22;37345;59.828;30.328;2022-11-20T02:04:15;-4.50;99.90
51273;DHT22;37345;59.828;30.328;2022-11-20T02:06:57;-4.50;99.90
51273;DHT22;37345;59.828;30.328;2022-11-20T02:09:25;-4.50;99.90
51273;DHT22;37345;59.828;30.328;2022-11-20T02:11:51;-4.50;99.90
51273;DHT22;37345;59.828;30.328;2022-11-20T02:14:17;-4.50;99.90
51273;DHT22;37345;59.828;30.328;2022-11-20T02:16:48;-4.50;99.90
51273;DHT22;37345;59.828;30.328;2022-11-20T02:19:32;-4.50;99.90
51273;DHT22;37345;59.828;30.328;2022-11-20T02:25:03;-4.50;99.90
51273;DHT22;37345;59.828;30.328;2022-11-20T02:27:29;-4.20;99.90
51273;DHT22;37345;59.828;30.328;2022-11-20T02:30:02;-4.70;99.90
51273;DHT22;37345;59.828;30.328;2022-11-20T02:32:32;-4.60;99.90
51273;DHT22;37345;59.828;30.328;2022-11-20T02:35:05;-4.60;99.90
51273;DHT22;37345;59.828;30.328;2022-11-20T02:37:35;-4.70;99.90
51273;DHT22;37345;59.828;30.328;2022-11-20T02:40:02;-4.60;99.90
51273;DHT22;37345;59.828;30.328;2022-11-20T02:42:28;-4.50;99.90
51273;DHT22;37345;59.828;30.328;2022-11-20T02:44:54;-4.50;99.90
51273;DHT22;37345;59.828;30.328;2022-11-20T02:47:20;-4.50;99.90
51273;DHT22;37345;59.828;30.328;2022-11-20T02:49:46;-4.50;99.90
51273;DHT22;37345;59.828;30.328;2022-11-20T02:52:12;-4.40;99.90
51273;DHT22;37345;59.828;30.328;2022-11-20T02:54:38;-4.50;99.90
51273;DHT22;37345;59.828;30.328;2022-11-20T02:57:04;-4.60;99.90
51273;DHT22;37345;59.828;30.328;2022-11-20T02:59:33;-4.50;99.90
51273;DHT22;37345;59.828;30.328;2022-11-20T03:01:58;-4.50;99.90
51273;DHT22;37345;59.828;30.328;2022-11-20T03:04:24;-4.50;99.90
51273;DHT22;37345;59.828;30.328;2022-11-20T03:06:51;-4.50;99.90
51273;DHT22;37345;59.828;30.328;2022-11-20T03:09:17;-4.40;99.90
51273;DHT22;37345;59.828;30.328;2022-11-20T03:11:43;-4.60;99.90
51273;DHT22;37345;59.828;30.328;2022-11-20T03:14:09;-4.70;99.90
51273;DHT22;37345;59.828;30.328;2022-11-20T03:16:35;-3.60;99.90
51273;DHT22;37345;59.828;30.328;2022-11-20T03:19:01;-4.60;99.90
51273;DHT22;37345;59.828;30.328;2022-11-20T03:21:27;-4.70;99.90
51273;DHT22;37345;59.828;30.328;2022-11-20T03:23:54;-4.70;99.90
51273;DHT22;37345;59.828;30.328;2022-11-20T03:26:24;-4.60;99.90
51273;DHT22;37345;59.828;30.328;2022-11-20T03:28:56;-4.60;99.90
51273;DHT22;37345;59.828;30.328;2022-11-20T03:31:34;-4.60;99.90
51273;DHT22;37345;59.828;30.328;2022-11-20T03:34:02;-4.50;99.90
51273;DHT22;37345;59.828;30.328;2022-11-20T03:36:29;-4.70;99.90
51273;DHT22;37345;59.828;30.328;2022-11-20T03:38:58;-4.70;99.90
51273;DHT22;37345;59.828;30.328;2022-11-20T03:41:26;-4.60;99.90
51273;DHT22;37345;59.828;30.328;2022-11-20T03:43:59;-4.50;99.90
51273;DHT22;37345;59.828;30.328;2022-11-20T03:46:27;-4.60;99.90
51273;DHT22;37345;59.828;30.328;2022-11-20T03:48:54;-4.50;99.90
51273;DHT22;37345;59.828;30.328;2022-11-20T03:54:19;-4.50;99.90
51273;DHT22;37345;59.828;30.328;2022-11-20T03:56:56;-4.30;99.90
51273;DHT22;37345;59.828;30.328;2022-11-20T03:59:23;-4.50;99.90
51273;DHT22;37345;59.828;30.328;2022-11-20T04:01:49;-2.60;99.90
51273;DHT22;37345;59.828;30.328;2022-11-20T04:04:17;-6.30;99.90
51273;DHT22;37345;59.828;30.328;2022-11-20T04:06:42;-4.60;99.90
51273;DHT22;37345;59.828;30.328;2022-11-20T04:09:08;-4.70;99.90
51273;DHT22;37345;59.828;30.328;2022-11-20T04:11:37;-4.60;99.90
51273;DHT22;37345;59.828;30.328;2022-11-20T04:14:05;-4.70;99.90
51273;DHT22;37345;59.828;30.328;2022-11-20T04:16:34;-4.60;99.90
51273;DHT22;37345;59.828;30.328;2022-11-20T04:19:08;-4.70;99.90
51273;DHT22;37345;59.828;30.328;2022-11-20T04:21:35;-4.70;99.90
51273;DHT22;37345;59.828;30.328;2022-11-20T04:24:01;-4.80;99.90
51273;DHT22;37345;59.828;30.328;2022-11-20T04:26:28;-3.20;99.90
51273;DHT22;37345;59.828;30.328;2022-11-20T04:28:54;-4.70;99.90
51273;DHT22;37345;59.828;30.328;2022-11-20T04:31:23;-4.60;99.90
51273;DHT22;37345;59.828;30.328;2022-11-20T04:33:50;-4.80;99.90
51273;DHT22;37345;59.828;30.328;2022-11-20T04:36:19;-5.00;99.90
51273;DHT22;37345;59.828;30.328;2022-11-20T04:38:45;-4.80;99.90
51273;DHT22;37345;59.828;30.328;2022-11-20T04:41:19;-4.90;99.90
51273;DHT22;37345;59.828;30.328;2022-11-20T04:43:53;-4.60;99.90
51273;DHT22;37345;59.828;30.328;2022-11-20T04:46:25;-4.60;99.90
51273;DHT22;37345;59.828;30.328;2022-11-20T04:48:51;-4.90;99.90
51273;DHT22;37345;59.828;30.328;2022-11-20T04:51:17;-4.90;99.90
51273;DHT22;37345;59.828;30.328;2022-11-20T04:53:43;-5.00;99.90
51273;DHT22;37345;59.828;30.328;2022-11-20T04:56:11;-4.90;99.90
51273;DHT22;37345;59.828;30.328;2022-11-20T04:58:38;-4.80;99.90
51273;DHT22;37345;59.828;30.328;2022-11-20T05:01:18;-5.00;99.90
51273;DHT22;37345;59.828;30.328;2022-11-20T05:03:45;-4.70;99.90
51273;DHT22;37345;59.828;30.328;2022-11-20T05:06:16;-4.90;99.90
51273;DHT22;37345;59.828;30.328;2022-11-20T05:08:42;-5.00;99.90
51273;DHT22;37345;59.828;30.328;2022-11-20T05:11:13;-4.90;99.90
51273;DHT22;37345;59.828;30.328;2022-11-20T05:13:40;-5.00;99.90
51273;DHT22;37345;59.828;30.328;2022-11-20T05:16:08;-5.40;99.90
51273;DHT22;37345;59.828;30.328;2022-11-20T05:18:35;-4.60;99.90
51273;DHT22;37345;59.828;30.328;2022-11-20T05:21:02;-4.90;99.90
51273;DHT22;37345;59.828;30.328;2022-11-20T05:23:29;-4.80;99.90
51273;DHT22;37345;59.828;30.328;2022-11-20T05:25:57;-5.00;99.90
51273;DHT22;37345;59.828;30.328;2022-11-20T05:28:23;-5.00;99.90
51273;DHT22;37345;59.828;30.328;2022-11-20T05:30:50;-4.90;99.90
51273;DHT22;37345;59.828;30.328;2022-11-20T05:33:16;-4.90;99.90
51273;DHT22;37345;59.828;30.328;2022-11-20T05:35:49;-4.90;99.90
51273;DHT22;37345;59.828;30.328;2022-11-20T05:38:15;-4.20;99.90
51273;DHT22;37345;59.828;30.328;2022-11-20T05:40:41;-5.40;99.90
51273;DHT22;37345;59.828;30.328;2022-11-20T05:43:07;-4.70;99.90
51273;DHT22;37345;59.828;30.328;2022-11-20T05:45:33;-5.10;99.90
51273;DHT22;37345;59.828;30.328;2022-11-20T05:47:59;-5.00;99.90
51273;DHT22;37345;59.828;30.328;2022-11-20T05:50:26;-5.00;99.90
51273;DHT22;37345;59.828;30.328;2022-11-20T05:52:52;-4.90;99.90
51273;DHT22;37345;59.828;30.328;2022-11-20T05:55:19;-3.10;99.90
51273;DHT22;37345;59.828;30.328;2022-11-20T05:57:47;-5.00;99.90
51273;DHT22;37345;59.828;30.328;2022-11-20T06:00:14;-4.90;99.90
51273;DHT22;37345;59.828;30.328;2022-11-20T06:02:40;-2.20;99.90
51273;DHT22;37345;59.828;30.328;2022-11-20T06:05:06;-5.70;99.90
51273;DHT22;37345;59.828;30.328;2022-11-20T06:07:32;-5.10;99.90
51273;DHT22;37345;59.828;30.328;2022-11-20T06:09:58;-4.90;99.90
51273;DHT22;37345;59.828;30.328;2022-11-20T06:12:24;-4.60;99.90
51273;DHT22;37345;59.828;30.328;2022-11-20T06:14:52;-4.90;99.90
51273;DHT22;37345;59.828;30.328;2022-11-20T06:17:18;-5.00;99.90
51273;DHT22;37345;59.828;30.328;2022-11-20T06:19:44;-4.90;99.90
51273;DHT22;37345;59.828;30.328;2022-11-20T06:22:10;-5.00;99.90
51273;DHT22;37345;59.828;30.328;2022-11-20T06:24:36;-5.20;99.90
51273;DHT22;37345;59.828;30.328;2022-11-20T06:27:01;-4.90;99.90
51273;DHT22;37345;59.828;30.328;2022-11-20T06:29:27;-5.00;99.90
51273;DHT22;37345;59.828;30.328;2022-11-20T06:31:54;-4.90;99.90
51273;DHT22;37345;59.828;30.328;2022-11-20T06:34:20;-4.90;99.90
51273;DHT22;37345;59.828;30.328;2022-11-20T06:36:46;-4.90;99.90
51273;DHT22;37345;59.828;30.328;2022-11-20T06:39:12;-5.00;99.90
51273;DHT22;37345;59.828;30.328;2022-11-20T06:41:38;-5.00;99.90
51273;DHT22;37345;59.828;30.328;2022-11-20T06:44:04;-4.90;99.90
51273;DHT22;37345;59.828;30.328;2022-11-20T06:46:31;-5.10;99.90
51273;DHT22;37345;59.828;30.328;2022-11-20T06:48:56;-4.90;99.90
51273;DHT22;37345;59.828;30.328;2022-11-20T06:51:26;-4.90;99.90
51273;DHT22;37345;59.828;30.328;2022-11-20T06:53:53;-5.10;99.90
51273;DHT22;37345;59.828;30.328;2022-11-20T06:56:18;-4.90;99.90
51273;DHT22;37345;59.828;30.328;2022-11-20T06:58:44;-4.80;99.90
51273;DHT22;37345;59.828;30.328;2022-11-20T07:01:14;-4.80;99.90
51273;DHT22;37345;59.828;30.328;2022-11-20T07:03:41;-5.00;99.90
51273;DHT22;37345;59.828;30.328;2022-11-20T07:06:07;-4.90;99.90
51273;DHT22;37345;59.828;30.328;2022-11-20T07:08:34;-4.90;99.90
51273;DHT22;37345;59.828;30.328;2022-11-20T07:11:05;-4.80;99.90
51273;DHT22;37345;59.828;30.328;2022-11-20T07:13:35;-4.90;99.90
51273;DHT22;37345;59.828;30.328;2022-11-20T07:16:02;-4.80;99.90
51273;DHT22;37345;59.828;30.328;2022-11-20T07:18:28;-4.90;99.90
51273;DHT22;37345;59.828;30.328;2022-11-20T07:20:54;-4.70;99.90
51273;DHT22;37345;59.828;30.328;2022-11-20T07:23:20;-4.70;99.90
51273;DHT22;37345;59.828;30.328;2022-11-20T07:25:46;-4.80;99.90
51273;DHT22;37345;59.828;30.328;2022-11-20T07:28:12;-4.90;99.90
51273;DHT22;37345;59.828;30.328;2022-11-20T07:30:38;-4.80;99.90
51273;DHT22;37345;59.828;30.328;2022-11-20T07:33:03;-4.80;99.90
51273;DHT22;37345;59.828;30.328;2022-11-20T07:35:29;-4.80;99.90
51273;DHT22;37345;59.828;30.328;2022-11-20T07:37:55;-4.80;99.90
51273;DHT22;37345;59.828;30.328;2022-11-20T07:40:22;-4.70;99.90
51273;DHT22;37345;59.828;30.328;2022-11-20T07:42:49;-4.80;99.90
51273;DHT22;37345;59.828;30.328;2022-11-20T07:45:16;-4.80;99.90
51273;DHT22;37345;59.828;30.328;2022-11-20T07:47:43;-4.70;99.90
51273;DHT22;37345;59.828;30.328;2022-11-20T07:50:09;-5.00;99.90
51273;DHT22;37345;59.828;30.328;2022-11-20T07:52:35;-4.80;99.90
51273;DHT22;37345;59.828;30.328;2022-11-20T07:55:01;-4.80;99.90
51273;DHT22;37345;59.828;30.328;2022-11-20T07:57:26;-4.80;99.90
51273;DHT22;37345;59.828;30.328;2022-11-20T07:59:52;-4.80;99.90
51273;DHT22;37345;59.828;30.328;2022-11-20T08:02:18;-4.70;99.90
51273;DHT22;37345;59.828;30.328;2022-11-20T08:04:44;-4.80;99.90
51273;DHT22;37345;59.828;30.328;2022-11-20T08:07:09;-4.70;99.90
51273;DHT22;37345;59.828;30.328;2022-11-20T08:09:38;-4.70;99.90
51273;DHT22;37345;59.828;30.328;2022-11-20T08:12:04;-4.70;99.90
51273;DHT22;37345;59.828;30.328;2022-11-20T08:14:49;-4.50;99.90
51273;DHT22;37345;59.828;30.328;2022-11-20T08:17:14;-4.60;99.90
51273;DHT22;37345;59.828;30.328;2022-11-20T08:19:40;-4.60;99.90
51273;DHT22;37345;59.828;30.328;2022-11-20T08:22:06;-4.60;99.90
51273;DHT22;37345;59.828;30.328;2022-11-20T08:24:32;-4.40;99.90
51273;DHT22;37345;59.828;30.328;2022-11-20T08:26:58;-4.50;99.90
51273;DHT22;37345;59.828;30.328;2022-11-20T08:29:26;-4.50;99.90
51273;DHT22;37345;59.828;30.328;2022-11-20T08:31:52;-4.50;99.90
51273;DHT22;37345;59.828;30.328;2022-11-20T08:34:26;-4.60;99.90
51273;DHT22;37345;59.828;30.328;2022-11-20T08:36:55;-4.60;99.90
51273;DHT22;37345;59.828;30.328;2022-11-20T08:39:21;-4.60;99.90
51273;DHT22;37345;59.828;30.328;2022-11-20T08:41:46;-4.70;99.90
51273;DHT22;37345;59.828;30.328;2022-11-20T08:44:12;-4.70;99.90
51273;DHT22;37345;59.828;30.328;2022-11-20T08:46:41;-5.50;99.90
51273;DHT22;37345;59.828;30.328;2022-11-20T08:49:13;-4.50;99.90
51273;DHT22;37345;59.828;30.328;2022-11-20T08:51:39;-4.50;99.90
51273;DHT22;37345;59.828;30.328;2022-11-20T08:54:06;-4.60;99.90
51273;DHT22;37345;59.828;30.328;2022-11-20T08:56:37;-4.50;99.90
51273;DHT22;37345;59.828;30.328;2022-11-20T08:59:03;-4.50;99.90
51273;DHT22;37345;59.828;30.328;2022-11-20T09:01:29;-4.50;99.90
51273;DHT22;37345;59.828;30.328;2022-11-20T09:03:56;-4.50;99.90
51273;DHT22;37345;59.828;30.328;2022-11-20T09:06:25;-4.60;99.90
51273;DHT22;37345;59.828;30.328;2022-11-20T09:08:54;-4.60;99.90
51273;DHT22;37345;59.828;30.328;2022-11-20T09:11:20;-4.50;99.90
51273;DHT22;37345;59.828;30.328;2022-11-20T09:21:09;-4.60;99.90
51273;DHT22;37345;59.828;30.328;2022-11-20T09:23:36;-4.40;99.90
51273;DHT22;37345;59.828;30.328;2022-11-20T09:26:08;-4.30;99.90
51273;DHT22;37345;59.828;30.328;2022-11-20T09:28:34;-4.50;99.90
51273;DHT22;37345;59.828;30.328;2022-11-20T09:31:00;-4.50;99.90
51273;DHT22;37345;59.828;30.328;2022-11-20T09:33:26;-4.50;99.90
51273;DHT22;37345;59.828;30.328;2022-11-20T09:35:52;-4.40;99.90
51273;DHT22;37345;59.828;30.328;2022-11-20T09:38:18;-4.40;99.90
51273;DHT22;37345;59.828;30.328;2022-11-20T09:40:50;-4.30;99.90
51273;DHT22;37345;59.828;30.328;2022-11-20T09:43:43;-4.30;99.90
51273;DHT22;37345;59.828;30.328;2022-11-20T09:46:17;-4.40;99.90
51273;DHT22;37345;59.828;30.328;2022-11-20T09:51:43;-4.30;99.90
51273;DHT22;37345;59.828;30.328;2022-11-20T09:54:17;-4.30;99.90
51273;DHT22;37345;59.828;30.328;2022-11-20T09:56:52;-4.10;99.90
51273;DHT22;37345;59.828;30.328;2022-11-20T10:01:55;-4.40;99.90
51273;DHT22;37345;59.828;30.328;2022-11-20T10:04:24;-4.00;99.90
51273;DHT22;37345;59.828;30.328;2022-11-20T10:06:53;-4.30;99.90
51273;DHT22;37345;59.828;30.328;2022-11-20T10:09:29;-4.30;99.90
51273;DHT22;37345;59.828;30.328;2022-11-20T10:23:12;-4.10;99.90
51273;DHT22;37345;59.828;30.328;2022-11-20T10:25:44;-4.20;99.90
51273;DHT22;37345;59.828;30.328;2022-11-20T10:31:35;-4.90;99.90
51273;DHT22;37345;59.828;30.328;2022-11-20T10:37:23;-4.00;99.90
51273;DHT22;37345;59.828;30.328;2022-11-20T10:39:55;-4.00;99.90
51273;DHT22;37345;59.828;30.328;2022-11-20T10:42:43;-4.10;99.90
51273;DHT22;37345;59.828;30.328;2022-11-20T10:45:45;-4.20;99.90
51273;DHT22;37345;59.828;30.328;2022-11-20T10:50:54;-3.90;99.90
51273;DHT22;37345;59.828;30.328;2022-11-20T10:56:07;-4.10;99.90
51273;DHT22;37345;59.828;30.328;2022-11-20T10:58:54;-4.10;99.90
51273;DHT22;37345;59.828;30.328;2022-11-20T11:01:43;-4.10;99.90
51273;DHT22;37345;59.828;30.328;2022-11-20T11:04:39;-4.00;99.90
51273;DHT22;37345;59.828;30.328;2022-11-20T11:07:25;-4.00;99.90
51273;DHT22;37345;59.828;30.328;2022-11-20T11:09:56;-4.00;99.90
51273;DHT22;37345;59.828;30.328;2022-11-20T11:12:31;-4.00;99.90
51273;DHT22;37345;59.828;30.328;2022-11-20T11:14:57;-4.10;99.90
51273;DHT22;37345;59.828;30.328;2022-11-20T11:17:32;-4.00;99.90
51273;DHT22;37345;59.828;30.328;2022-11-20T11:22:42;-4.10;99.90
51273;DHT22;37345;59.828;30.328;2022-11-20T11:25:26;-4.10;99.90
51273;DHT22;37345;59.828;30.328;2022-11-20T11:27:54;-3.60;99.90
51273;DHT22;37345;59.828;30.328;2022-11-20T11:30:28;-4.00;99.90
51273;DHT22;37345;59.828;30.328;2022-11-20T11:33:22;-4.00;99.90
51273;DHT22;37345;59.828;30.328;2022-11-20T11:35:56;-3.90;99.90
51273;DHT22;37345;59.828;30.328;2022-11-20T11:38:36;-4.00;99.90
51273;DHT22;37345;59.828;30.328;2022-11-20T11:41:04;-3.80;99.90
51273;DHT22;37345;59.828;30.328;2022-11-20T11:43:36;-4.00;99.90
51273;DHT22;37345;59.828;30.328;2022-11-20T11:49:09;-4.00;99.90
51273;DHT22;37345;59.828;30.328;2022-11-20T11:51:58;-3.90;99.90
51273;DHT22;37345;59.828;30.328;2022-11-20T15:47:54;-3.70;99.90
51273;DHT22;37345;59.828;30.328;2022-11-20T15:50:21;-3.80;99.90
51273;DHT22;37345;59.828;30.328;2022-11-20T15:52:49;-3.80;99.90
51273;DHT22;37345;59.828;30.328;2022-11-20T15:55:15;-3.80;99.90
51273;DHT22;37345;59.828;30.328;2022-11-20T15:57:41;-3.70;99.90
51273;DHT22;37345;59.828;30.328;2022-11-20T16:00:08;-3.80;99.90
51273;DHT22;37345;59.828;30.328;2022-11-20T16:02:34;-3.70;99.90
51273;DHT22;37345;59.828;30.328;2022-11-20T16:05:00;-3.80;99.90
51273;DHT22;37345;59.828;30.328;2022-11-20T16:07:25;-3.60;99.90
51273;DHT22;37345;59.828;30.328;2022-11-20T16:09:51;-3.80;99.90
51273;DHT22;37345;59.828;30.328;2022-11-20T16:12:17;-3.70;99.90
51273;DHT22;37345;59.828;30.328;2022-11-20T16:15:03;-3.80;99.90
51273;DHT22;37345;59.828;30.328;2022-11-20T16:17:47;-3.60;99.90
51273;DHT22;37345;59.828;30.328;2022-11-20T16:20:13;-3.70;99.90
51273;DHT22;37345;59.828;30.328;2022-11-20T16:22:39;-3.70;99.90
51273;DHT22;37345;59.828;30.328;2022-11-20T16:25:05;-3.70;99.90
51273;DHT22;37345;59.828;30.328;2022-11-20T16:27:31;-3.70;99.90
51273;DHT22;37345;59.828;30.328;2022-11-20T16:29:56;-3.70;99.90
51273;DHT22;37345;59.828;30.328;2022-11-20T16:32:22;-4.00;99.90
51273;DHT22;37345;59.828;30.328;2022-11-20T16:34:49;-3.60;99.90
51273;DHT22;37345;59.828;30.328;2022-11-20T16:37:15;-3.60;99.90
51273;DHT22;37345;59.828;30.328;2022-11-20T16:39:41;-3.50;99.90
51273;DHT22;37345;59.828;30.328;2022-11-20T16:42:06;-3.70;99.90
51273;DHT22;37345;59.828;30.328;2022-11-20T16:44:32;-3.60;99.90
51273;DHT22;37345;59.828;30.328;2022-11-20T16:46:59;-3.60;99.90
51273;DHT22;37345;59.828;30.328;2022-11-20T16:49:25;-3.60;99.90
51273;DHT22;37345;59.828;30.328;2022-11-20T16:54:17;-3.60;99.90
51273;DHT22;37345;59.828;30.328;2022-11-20T16:56:43;-3.60;99.90
51273;DHT22;37345;59.828;30.328;2022-11-20T16:59:12;-3.50;99.90
51273;DHT22;37345;59.828;30.328;2022-11-20T17:01:38;-3.60;99.90
51273;DHT22;37345;59.828;30.328;2022-11-20T17:04:06;-3.60;99.90
51273;DHT22;37345;59.828;30.328;2022-11-20T17:06:34;-3.60;99.90
51273;DHT22;37345;59.828;30.328;2022-11-20T17:09:01;-3.60;99.90
51273;DHT22;37345;59.828;30.328;2022-11-20T17:11:27;-3.50;99.90
51273;DHT22;37345;59.828;30.328;2022-11-20T17:13:54;-3.50;99.90
51273;DHT22;37345;59.828;30.328;2022-11-20T17:16:22;-3.50;99.90
51273;DHT22;37345;59.828;30.328;2022-11-20T17:18:49;-3.40;99.90
51273;DHT22;37345;59.828;30.328;2022-11-20T17:21:16;-3.40;99.90
51273;DHT22;37345;59.828;30.328;2022-11-20T17:23:43;-3.60;99.90
51273;DHT22;37345;59.828;30.328;2022-11-20T17:26:11;-3.40;99.90
51273;DHT22;37345;59.828;30.328;2022-11-20T17:28:42;-3.40;99.90
51273;DHT22;37345;59.828;30.328;2022-11-20T17:31:10;-3.50;99.90
51273;DHT22;37345;59.828;30.328;2022-11-20T17:33:38;-3.50;99.90
51273;DHT22;37345;59.828;30.328;2022-11-20T17:36:06;-3.50;99.90
51273;DHT22;37345;59.828;30.328;2022-11-20T17:38:42;-3.50;99.90
51273;DHT22;37345;59.828;30.328;2022-11-20T17:41:14;-3.50;99.90
51273;DHT22;37345;59.828;30.328;2022-11-20T17:43:40;-3.40;99.90
51273;DHT22;37345;59.828;30.328;2022-11-20T17:46:13;-3.50;99.90
51273;DHT22;37345;59.828;30.328;2022-11-20T17:48:39;-3.30;99.90
51273;DHT22;37345;59.828;30.328;2022-11-20T17:51:09;-3.50;99.90
51273;DHT22;37345;59.828;30.328;2022-11-20T17:53:37;-3.40;99.90
51273;DHT22;37345;59.828;30.328;2022-11-20T17:56:03;-3.40;99.90
51273;DHT22;37345;59.828;30.328;2022-11-20T17:58:48;-3.40;99.90
51273;DHT22;37345;59.828;30.328;2022-11-20T18:01:14;-3.50;99.90
51273;DHT22;37345;59.828;30.328;2022-11-20T18:03:40;-3.30;99.90
51273;DHT22;37345;59.828;30.328;2022-11-20T18:06:20;-3.40;99.90
51273;DHT22;37345;59.828;30.328;2022-11-20T18:08:47;-3.30;99.90
51273;DHT22;37345;59.828;30.328;2022-11-20T18:11:35;-3.40;99.90
51273;DHT22;37345;59.828;30.328;2022-11-20T18:14:03;-3.40;99.90
51273;DHT22;37345;59.828;30.328;2022-11-20T18:16:54;-3.30;99.90
51273;DHT22;37345;59.828;30.328;2022-11-20T18:19:23;-3.20;99.90
51273;DHT22;37345;59.828;30.328;2022-11-20T18:21:50;-3.40;99.90
51273;DHT22;37345;59.828;30.328;2022-11-20T18:24:16;-3.20;99.90
51273;DHT22;37345;59.828;30.328;2022-11-20T18:26:42;-3.20;99.90
51273;DHT22;37345;59.828;30.328;2022-11-20T18:29:08;-3.30;99.90
51273;DHT22;37345;59.828;30.328;2022-11-20T18:31:34;-3.30;99.90
51273;DHT22;37345;59.828;30.328;2022-11-20T18:34:00;-3.40;99.90
51273;DHT22;37345;59.828;30.328;2022-11-20T18:36:28;-3.30;99.90
51273;DHT22;37345;59.828;30.328;2022-11-20T18:38:56;-3.30;99.90
51273;DHT22;37345;59.828;30.328;2022-11-20T18:41:23;-3.30;99.90
51273;DHT22;37345;59.828;30.328;2022-11-20T18:44:15;-3.00;99.90
51273;DHT22;37345;59.828;30.328;2022-11-20T18:46:59;-2.70;99.90
51273;DHT22;37345;59.828;30.328;2022-11-20T18:49:25;-3.20;99.90
51273;DHT22;37345;59.828;30.328;2022-11-20T18:51:53;-3.30;99.90
51273;DHT22;37345;59.828;30.328;2022-11-20T18:54:19;-3.30;99.90
51273;DHT22;37345;59.828;30.328;2022-11-20T18:56:45;-3.30;99.90
51273;DHT22;37345;59.828;30.328;2022-11-20T18:59:11;-3.70;99.90
51273;DHT22;37345;59.828;30.328;2022-11-20T19:01:37;-3.00;99.90
51273;DHT22;37345;59.828;30.328;2022-11-20T19:04:08;-3.30;99.90
51273;DHT22;37345;59.828;30.328;2022-11-20T19:06:35;-3.40;99.90
51273;DHT22;37345;59.828;30.328;2022-11-20T19:09:02;-3.20;99.90
51273;DHT22;37345;59.828;30.328;2022-11-20T19:11:28;-3.10;99.90
51273;DHT22;37345;59.828;30.328;2022-11-20T19:13:54;-3.20;99.90
51273;DHT22;37345;59.828;30.328;2022-11-20T19:16:21;-2.80;99.90
51273;DHT22;37345;59.828;30.328;2022-11-20T19:18:49;-3.10;99.90
51273;DHT22;37345;59.828;30.328;2022-11-20T19:21:20;-3.30;99.90
51273;DHT22;37345;59.828;30.328;2022-11-20T19:23:48;-3.30;99.90
51273;DHT22;37345;59.828;30.328;2022-11-20T19:26:14;-3.40;99.90
51273;DHT22;37345;59.828;30.328;2022-11-20T19:28:40;-3.40;99.90
51273;DHT22;37345;59.828;30.328;2022-11-20T19:31:09;-3.10;99.90
51273;DHT22;37345;59.828;30.328;2022-11-20T19:33:36;-3.30;99.90
51273;DHT22;37345;59.828;30.328;2022-11-20T19:36:16;-3.30;99.90
51273;DHT22;37345;59.828;30.328;2022-11-20T19:38:44;-3.20;99.90
51273;DHT22;37345;59.828;30.328;2022-11-20T19:41:18;-3.30;99.90
51273;DHT22;37345;59.828;30.328;2022-11-20T19:43:45;-3.10;99.90
51273;DHT22;37345;59.828;30.328;2022-11-20T19:46:18;-3.00;99.90
51273;DHT22;37345;59.828;30.328;2022-11-20T19:48:45;-3.40;99.90
51273;DHT22;37345;59.828;30.328;2022-11-20T19:51:18;-3.40;99.90
51273;DHT22;37345;59.828;30.328;2022-11-20T19:53:44;-3.50;99.90
51273;DHT22;37345;59.828;30.328;2022-11-20T19:56:10;-3.60;99.90
51273;DHT22;37345;59.828;30.328;2022-11-20T19:58:37;-3.40;99.90
51273;DHT22;37345;59.828;30.328;2022-11-20T20:01:16;-3.50;99.90
51273;DHT22;37345;59.828;30.328;2022-11-20T20:03:43;-3.50;99.90
51273;DHT22;37345;59.828;30.328;2022-11-20T20:06:15;-3.40;99.90
51273;DHT22;37345;59.828;30.328;2022-11-20T20:08:41;-3.60;99.90
51273;DHT22;37345;59.828;30.328;2022-11-20T20:11:12;-3.50;99.90
51273;DHT22;37345;59.828;30.328;2022-11-20T20:13:39;-3.60;99.90